createdAt,value
2023-01-06T00:02:13.799Z,4.10
2023-01-06T00:04:46.885Z,5.50
2023-01-06T00:07:19.924Z,3.60
2023-01-06T00:09:54.070Z,4.50
2023-01-06T00:12:27.038Z,3.40
2023-01-06T00:15:00.103Z,4.60
2023-01-06T00:17:33.720Z,4.30
2023-01-06T00:20:07.771Z,7.50
2023-01-06T00:22:42.335Z,6.90
2023-01-06T00:25:15.413Z,6.70
2023-01-06T00:27:48.736Z,6.90
2023-01-06T00:30:21.749Z,6.00
2023-01-06T00:32:56.984Z,6.50
2023-01-06T00:35:29.842Z,4.90
2023-01-06T00:38:02.747Z,5.10
2023-01-06T00:40:37.103Z,5.50
2023-01-06T00:43:10.080Z,6.00
2023-01-06T00:45:43.125Z,5.30
2023-01-06T00:48:16.038Z,5.70
2023-01-06T00:50:48.801Z,5.40
2023-01-06T00:53:21.663Z,5.80
2023-01-06T00:56:00.689Z,5.20
2023-01-06T00:58:34.967Z,5.60
2023-01-06T01:01:10.196Z,4.80
2023-01-06T01:03:43.605Z,4.60
2023-01-06T01:06:17.798Z,6.20
2023-01-06T01:08:53.567Z,4.90
2023-01-06T01:11:44.385Z,4.80
2023-01-06T01:14:18.654Z,4.90
2023-01-06T01:16:51.885Z,6.00
2023-01-06T01:19:25.411Z,4.50
2023-01-06T01:21:58.723Z,4.70
2023-01-06T01:24:31.691Z,4.70
2023-01-06T01:27:04.514Z,4.60
2023-01-06T01:29:37.876Z,5.10
2023-01-06T01:32:11.386Z,5.00
2023-01-06T01:34:44.530Z,5.40
2023-01-06T01:37:17.357Z,5.20
2023-01-06T01:39:50.470Z,4.90
2023-01-06T01:42:24.259Z,4.90
2023-01-06T01:45:03.041Z,6.30
2023-01-06T01:47:47.640Z,5.30
2023-01-06T01:50:27.081Z,5.60
2023-01-06T01:53:03.909Z,4.20
2023-01-06T01:55:38.907Z,4.60
2023-01-06T01:58:15.200Z,5.10
2023-01-06T02:00:48.938Z,5.20
2023-01-06T02:03:24.170Z,4.30
2023-01-06T02:06:03.009Z,4.30
2023-01-06T02:08:39.566Z,4.90
2023-01-06T02:11:13.219Z,4.10
2023-01-06T02:13:48.651Z,4.70
2023-01-06T02:16:25.359Z,5.10
2023-01-06T02:19:07.675Z,4.90
2023-01-06T02:22:01.678Z,5.70
2023-01-06T02:25:20.261Z,4.70
2023-01-06T02:28:22.340Z,3.90
2023-01-06T02:31:30.142Z,5.10
2023-01-06T02:34:12.990Z,4.50
2023-01-06T02:36:55.115Z,6.10
2023-01-06T02:39:40.036Z,5.30
2023-01-06T02:42:25.425Z,5.30
2023-01-06T02:45:08.078Z,4.90
2023-01-06T02:47:55.713Z,4.90
2023-01-06T02:50:38.393Z,4.90
2023-01-06T02:53:22.580Z,5.70
2023-01-06T02:55:58.459Z,5.10
2023-01-06T02:58:36.271Z,5.40
2023-01-06T03:01:17.158Z,5.90
2023-01-06T03:03:52.438Z,4.80
2023-01-06T03:06:31.317Z,4.30
2023-01-06T03:09:06.527Z,5.30
2023-01-06T03:11:45.675Z,4.70
2023-01-06T03:14:29.396Z,4.70
2023-01-06T03:17:03.716Z,5.10
2023-01-06T03:19:38.126Z,5.90
2023-01-06T03:22:13.137Z,5.30
2023-01-06T03:24:48.544Z,4.80
2023-01-06T03:27:24.912Z,4.60
2023-01-06T03:29:57.843Z,5.10
2023-01-06T03:32:40.284Z,5.00
2023-01-06T03:35:32.832Z,5.80
2023-01-06T03:38:15.638Z,6.00
2023-01-06T03:40:56.401Z,4.20
2023-01-06T03:43:41.421Z,6.70
2023-01-06T03:46:29.645Z,5.10
2023-01-06T03:49:09.683Z,4.80
2023-01-06T03:51:56.045Z,6.50
2023-01-06T03:54:40.049Z,6.10
2023-01-06T03:57:18.161Z,6.30
2023-01-06T03:59:55.416Z,4.10
2023-01-06T04:02:32.182Z,5.00
2023-01-06T04:05:11.587Z,5.10
2023-01-06T04:07:45.743Z,6.00
2023-01-06T04:10:21.481Z,5.40
2023-01-06T04:12:58.094Z,6.00
2023-01-06T04:15:40.201Z,5.20
2023-01-06T04:18:13.656Z,5.20
2023-01-06T04:20:48.141Z,5.20
2023-01-06T04:23:24.776Z,5.60
2023-01-06T04:25:58.138Z,5.40
2023-01-06T04:28:37.140Z,4.50
2023-01-06T04:31:10.548Z,5.70
2023-01-06T04:33:44.328Z,5.20
2023-01-06T04:36:17.716Z,5.30
2023-01-06T04:38:55.644Z,5.60
2023-01-06T04:41:28.836Z,5.40
2023-01-06T04:44:02.215Z,5.50
2023-01-06T04:46:35.001Z,6.20
2023-01-06T04:49:10.066Z,5.30
2023-01-06T04:51:42.700Z,6.10
2023-01-06T04:54:15.826Z,4.40
2023-01-06T04:56:48.680Z,5.50
2023-01-06T04:59:21.812Z,3.90
2023-01-06T05:01:54.558Z,3.80
2023-01-06T05:04:34.173Z,4.30
2023-01-06T05:07:09.993Z,4.50
2023-01-06T05:09:42.893Z,4.10
2023-01-06T05:12:16.116Z,4.80
2023-01-06T05:14:49.187Z,4.30
2023-01-06T05:17:21.865Z,5.30
2023-01-06T05:19:54.750Z,5.30
2023-01-06T05:22:27.723Z,5.00
2023-01-06T05:25:00.542Z,5.30
2023-01-06T05:27:33.343Z,5.10
2023-01-06T05:30:10.601Z,5.80
2023-01-06T05:32:43.356Z,6.20
2023-01-06T05:35:16.320Z,5.30
2023-01-06T05:37:48.976Z,7.00
2023-01-06T05:40:21.889Z,6.90
2023-01-06T05:42:58.234Z,6.60
2023-01-06T05:45:31.107Z,6.90
2023-01-06T05:48:03.729Z,6.30
2023-01-06T05:50:36.063Z,6.50
2023-01-06T05:53:09.824Z,7.00
2023-01-06T05:55:42.707Z,6.80
2023-01-06T05:58:15.662Z,7.50
2023-01-06T06:00:48.447Z,8.10
2023-01-06T06:03:24.072Z,7.50
2023-01-06T06:05:56.770Z,7.30
2023-01-06T06:08:29.901Z,7.30
2023-01-06T06:11:08.301Z,6.40
2023-01-06T06:13:46.162Z,6.90
2023-01-06T06:16:21.913Z,7.70
2023-01-06T06:18:56.657Z,7.70
2023-01-06T06:21:31.874Z,7.40
2023-01-06T06:24:04.640Z,5.50
2023-01-06T06:26:37.247Z,5.90
2023-01-06T06:29:11.175Z,6.00
2023-01-06T06:31:44.322Z,7.90
2023-01-06T06:34:17.509Z,7.00
2023-01-06T06:36:50.370Z,9.30
2023-01-06T06:39:23.572Z,8.10
2023-01-06T06:41:56.437Z,6.10
2023-01-06T06:44:29.687Z,7.70
2023-01-06T06:47:02.788Z,7.40
2023-01-06T06:49:35.884Z,7.50
2023-01-06T06:52:09.034Z,8.20
2023-01-06T06:54:41.918Z,8.60
2023-01-06T06:57:15.170Z,8.90
2023-01-06T06:59:51.085Z,8.50
2023-01-06T07:02:24.099Z,10.40
2023-01-06T07:05:00.913Z,11.50
2023-01-06T07:07:33.903Z,12.80
2023-01-06T07:10:08.553Z,14.70
2023-01-06T07:12:41.266Z,22.20
2023-01-06T07:15:18.341Z,19.50
2023-01-06T07:17:51.304Z,96.00
2023-01-06T07:20:24.226Z,37.00
2023-01-06T07:22:59.411Z,33.10
2023-01-06T07:25:32.521Z,35.70
2023-01-06T07:28:07.220Z,21.70
2023-01-06T07:30:43.295Z,20.50
2023-01-06T07:33:19.087Z,16.90
2023-01-06T07:35:56.116Z,12.60
2023-01-06T07:38:29.317Z,8.40
2023-01-06T07:41:03.930Z,10.30
2023-01-06T07:43:36.658Z,10.20
2023-01-06T07:46:09.689Z,9.60
2023-01-06T07:48:42.606Z,9.20
2023-01-06T07:51:15.466Z,9.30
2023-01-06T07:53:48.421Z,10.30
2023-01-06T07:56:23.864Z,11.10
2023-01-06T07:58:57.011Z,12.60
2023-01-06T08:01:30.183Z,12.00
2023-01-06T08:04:03.237Z,11.60
2023-01-06T08:06:38.244Z,10.50
2023-01-06T08:09:11.236Z,11.00
2023-01-06T08:11:43.933Z,9.70
2023-01-06T08:14:17.387Z,10.70
2023-01-06T08:16:50.872Z,12.00
2023-01-06T08:19:24.182Z,13.60
2023-01-06T08:21:56.920Z,13.00
2023-01-06T08:24:31.871Z,16.70
2023-01-06T08:27:05.632Z,13.30
2023-01-06T08:29:38.801Z,11.60
2023-01-06T08:32:11.565Z,13.30
2023-01-06T08:34:46.793Z,13.90
2023-01-06T08:37:21.181Z,11.90
2023-01-06T08:39:54.473Z,17.30
2023-01-06T08:42:27.477Z,15.10
2023-01-06T08:45:00.129Z,18.90
2023-01-06T08:47:35.560Z,18.00
2023-01-06T08:50:09.383Z,16.50
2023-01-06T08:52:43.455Z,21.70
2023-01-06T08:55:16.984Z,56.90
2023-01-06T08:57:54.843Z,22.90
2023-01-06T09:00:27.898Z,20.50
2023-01-06T09:03:01.828Z,20.80
2023-01-06T09:05:35.014Z,14.20
2023-01-06T09:08:09.826Z,14.20
2023-01-06T09:10:42.558Z,14.20
2023-01-06T09:13:15.567Z,15.40
2023-01-06T09:15:49.212Z,17.60
2023-01-06T09:18:22.923Z,21.90
2023-01-06T09:20:55.979Z,19.10
2023-01-06T09:23:34.782Z,15.70
2023-01-06T09:26:07.875Z,17.00
2023-01-06T09:28:44.131Z,13.30
2023-01-06T09:31:18.269Z,14.00
2023-01-06T09:33:51.279Z,14.10
2023-01-06T09:36:23.949Z,13.00
2023-01-06T09:38:56.593Z,17.70
2023-01-06T09:42:05.765Z,15.80
2023-01-06T09:44:48.041Z,14.60
2023-01-06T09:47:25.881Z,17.10
2023-01-06T09:50:16.253Z,20.00
2023-01-06T09:52:55.529Z,15.40
2023-01-06T09:55:34.163Z,11.10
2023-01-06T09:58:13.472Z,13.20
2023-01-06T10:00:48.718Z,11.80
2023-01-06T10:03:24.132Z,12.00
2023-01-06T10:06:07.178Z,10.60
2023-01-06T10:08:49.293Z,11.20
2023-01-06T10:11:29.557Z,14.60
2023-01-06T10:14:14.046Z,13.30
2023-01-06T10:17:00.248Z,12.50
2023-01-06T10:19:48.642Z,13.30
2023-01-06T10:22:29.606Z,14.70
2023-01-06T10:25:08.502Z,17.90
2023-01-06T10:27:47.326Z,22.50
2023-01-06T10:30:30.234Z,20.60
2023-01-06T10:33:04.853Z,27.50
2023-01-06T10:35:38.749Z,19.70
2023-01-06T10:38:15.121Z,101.20
2023-01-06T10:40:48.272Z,62.60
2023-01-06T10:43:23.618Z,35.60
2023-01-06T10:45:56.731Z,16.40
2023-01-06T10:48:35.439Z,18.70
2023-01-06T10:51:32.650Z,16.80
2023-01-06T10:54:10.336Z,13.60
2023-01-06T10:56:48.089Z,17.20
2023-01-06T10:59:21.307Z,28.80
2023-01-06T11:01:57.258Z,16.10
2023-01-06T11:04:31.034Z,21.70
2023-01-06T11:07:07.342Z,17.40
2023-01-06T11:09:44.819Z,19.90
2023-01-06T11:12:20.830Z,16.10
2023-01-06T11:15:00.234Z,16.50
2023-01-06T11:17:33.951Z,16.30
2023-01-06T11:20:29.817Z,30.70
2023-01-06T11:26:15.217Z,19.90
2023-01-06T11:28:49.783Z,37.10
2023-01-06T11:31:28.167Z,24.80
2023-01-06T11:34:04.219Z,28.70
2023-01-06T11:36:46.586Z,27.20
2023-01-06T11:39:26.342Z,25.40
2023-01-06T11:42:07.060Z,21.00
2023-01-06T11:44:41.817Z,20.90
2023-01-06T11:47:20.316Z,18.30
2023-01-06T11:49:55.858Z,27.30
2023-01-06T11:52:32.276Z,21.40
2023-01-06T11:55:21.110Z,23.50
2023-01-06T11:58:01.467Z,13.50
2023-01-06T12:00:49.318Z,14.60
2023-01-06T12:03:31.363Z,14.80
2023-01-06T12:06:16.263Z,31.00
2023-01-06T12:08:57.672Z,31.80
2023-01-06T12:11:41.811Z,36.10
2023-01-06T12:14:28.082Z,19.90
2023-01-06T12:17:09.801Z,20.90
2023-01-06T12:19:50.119Z,17.50
2023-01-06T12:22:30.848Z,16.80
2023-01-06T12:25:04.968Z,17.70
2023-01-06T12:27:43.311Z,18.90
2023-01-06T12:30:25.329Z,21.00
2023-01-06T12:33:02.990Z,18.60
2023-01-06T12:35:40.920Z,35.10
2023-01-06T12:38:23.876Z,18.80
2023-01-06T12:41:03.013Z,23.60
2023-01-06T12:43:40.561Z,17.30
2023-01-06T12:46:17.263Z,20.40
2023-01-06T12:48:52.757Z,21.30
2023-01-06T12:51:32.232Z,21.10
2023-01-06T12:54:12.204Z,18.70
2023-01-06T12:57:03.201Z,14.50
2023-01-06T12:59:50.063Z,16.30
2023-01-06T13:02:39.013Z,29.00
2023-01-06T13:05:37.971Z,17.90
2023-01-06T13:08:27.069Z,26.70
2023-01-06T13:11:16.998Z,39.90
2023-01-06T13:14:01.760Z,33.90
2023-01-06T13:16:41.513Z,49.20
2023-01-06T13:19:26.519Z,38.80
2023-01-06T13:22:02.732Z,38.90
2023-01-06T13:24:50.079Z,70.80
2023-01-06T13:27:35.065Z,29.10
2023-01-06T13:30:20.375Z,32.50
2023-01-06T13:33:34.497Z,24.80
2023-01-06T13:36:26.266Z,25.50
2023-01-06T13:39:05.315Z,23.50
2023-01-06T13:41:41.114Z,19.00
2023-01-06T13:44:20.240Z,23.50
2023-01-06T13:46:55.484Z,28.70
2023-01-06T13:49:33.084Z,20.40
2023-01-06T13:52:09.212Z,20.50
2023-01-06T13:55:05.290Z,18.80
2023-01-06T13:57:40.744Z,24.50
2023-01-06T14:00:25.214Z,29.00
2023-01-06T14:03:15.647Z,28.90
2023-01-06T14:06:11.376Z,26.20
2023-01-06T14:08:53.716Z,24.40
2023-01-06T14:11:29.825Z,22.40
2023-01-06T14:14:05.139Z,21.10
2023-01-06T14:16:46.976Z,21.00
2023-01-06T14:19:23.030Z,20.20
2023-01-06T14:22:14.229Z,22.60
2023-01-06T14:24:54.039Z,23.50
2023-01-06T14:27:58.102Z,25.70
2023-01-06T14:30:33.519Z,27.60
2023-01-06T14:33:32.173Z,35.00
2023-01-06T14:36:14.195Z,35.90
2023-01-06T14:38:50.316Z,53.90
2023-01-06T14:41:28.848Z,73.30
2023-01-06T14:44:07.604Z,38.30
2023-01-06T14:46:46.881Z,68.10
2023-01-06T14:49:26.847Z,68.80
2023-01-06T14:52:09.726Z,81.30
2023-01-06T14:54:46.306Z,236.30
2023-01-06T14:57:36.166Z,154.30
2023-01-06T15:00:18.649Z,65.00
2023-01-06T15:02:54.969Z,59.60
2023-01-06T15:05:32.244Z,49.00
2023-01-06T15:08:07.550Z,69.50
2023-01-06T15:10:43.300Z,49.80
2023-01-06T15:13:26.314Z,37.60
2023-01-06T15:16:04.734Z,36.40
2023-01-06T15:18:43.238Z,37.80
2023-01-06T15:21:21.204Z,43.20
2023-01-06T15:23:57.198Z,40.40
2023-01-06T15:26:33.606Z,46.40
2023-01-06T15:29:08.891Z,51.90
2023-01-06T15:31:49.032Z,46.30
2023-01-06T15:34:25.121Z,41.50
2023-01-06T15:36:59.296Z,44.40
2023-01-06T15:39:36.982Z,35.20
2023-01-06T15:42:13.081Z,33.50
2023-01-06T15:44:57.574Z,33.70
2023-01-06T15:47:36.418Z,35.00
2023-01-06T15:50:17.626Z,36.70
2023-01-06T15:52:53.635Z,39.10
2023-01-06T15:55:32.225Z,35.10
2023-01-06T15:58:22.120Z,32.70
2023-01-06T16:01:02.739Z,33.90
2023-01-06T16:03:37.649Z,32.50
2023-01-06T16:06:15.237Z,34.50
2023-01-06T16:08:48.134Z,34.20
2023-01-06T16:11:48.102Z,35.70
2023-01-06T16:14:35.748Z,32.30
2023-01-06T16:17:15.733Z,32.30
2023-01-06T16:20:00.190Z,33.10
2023-01-06T16:22:52.055Z,32.60
2023-01-06T16:25:30.766Z,36.80
2023-01-06T16:28:18.267Z,40.80
2023-01-06T16:31:09.494Z,62.90
2023-01-06T16:33:46.989Z,62.10
2023-01-06T16:36:20.488Z,92.80
2023-01-06T16:38:53.400Z,38.20
2023-01-06T16:41:27.320Z,38.00
2023-01-06T16:43:59.963Z,39.90
2023-01-06T16:46:32.968Z,42.80
2023-01-06T16:49:12.541Z,41.80
2023-01-06T16:51:48.152Z,43.70
2023-01-06T16:54:21.101Z,43.00
2023-01-06T16:56:54.052Z,43.40
2023-01-06T16:59:29.704Z,46.60
2023-01-06T17:02:04.402Z,41.70
2023-01-06T17:04:37.753Z,37.80
2023-01-06T17:07:15.660Z,38.60
2023-01-06T17:09:50.131Z,38.10
2023-01-06T17:12:36.821Z,39.10
2023-01-06T17:15:13.688Z,37.90
2023-01-06T17:17:46.580Z,36.80
2023-01-06T17:20:19.713Z,35.30
2023-01-06T17:22:52.406Z,38.20
2023-01-06T17:25:25.521Z,38.50
2023-01-06T17:27:58.452Z,35.30
2023-01-06T17:30:31.096Z,35.90
2023-01-06T17:33:10.022Z,40.40
2023-01-06T17:35:50.012Z,38.50
2023-01-06T17:38:25.811Z,33.70
2023-01-06T17:41:00.494Z,33.50
2023-01-06T17:43:36.398Z,34.20
2023-01-06T17:46:20.274Z,34.50
2023-01-06T17:48:58.997Z,34.20
2023-01-06T17:51:34.329Z,30.70
2023-01-06T17:54:37.183Z,33.10
2023-01-06T17:57:16.919Z,33.30
2023-01-06T17:59:51.099Z,31.00
2023-01-06T18:02:41.420Z,31.30
2023-01-06T18:05:55.334Z,32.20
2023-01-06T18:08:29.244Z,30.10
2023-01-06T18:11:15.318Z,29.50
2023-01-06T18:13:50.456Z,28.80
2023-01-06T18:16:35.315Z,34.50
2023-01-06T18:19:34.424Z,33.70
2023-01-06T18:22:16.187Z,33.80
2023-01-06T18:24:51.454Z,31.90
2023-01-06T18:27:27.397Z,33.00
2023-01-06T18:30:17.695Z,32.50
2023-01-06T18:32:52.073Z,34.30
2023-01-06T18:35:28.943Z,32.00
2023-01-06T18:38:03.938Z,34.00
2023-01-06T18:40:38.658Z,32.30
2023-01-06T18:43:26.242Z,32.00
2023-01-06T18:46:02.410Z,29.30
2023-01-06T18:48:38.506Z,32.40
2023-01-06T18:51:20.661Z,31.60
2023-01-06T18:53:54.130Z,44.60
2023-01-06T18:56:28.147Z,61.80
2023-01-06T18:59:02.245Z,46.40
2023-01-06T19:01:46.258Z,46.30
2023-01-06T19:04:25.818Z,55.00
2023-01-06T19:07:09.160Z,45.50
2023-01-06T19:09:45.243Z,36.30
2023-01-06T19:12:25.865Z,31.30
2023-01-06T19:15:12.996Z,31.10
2023-01-06T19:17:47.831Z,32.10
2023-01-06T19:20:23.514Z,34.90
2023-01-06T19:22:57.181Z,33.60
2023-01-06T19:25:34.283Z,32.60
2023-01-06T19:28:14.146Z,46.10
2023-01-06T19:30:49.097Z,34.70
2023-01-06T19:33:39.600Z,54.40
2023-01-06T19:36:47.385Z,63.10
2023-01-06T19:39:34.628Z,47.10
2023-01-06T19:42:17.630Z,51.60
2023-01-06T19:44:55.449Z,62.10
2023-01-06T19:47:30.166Z,37.50
2023-01-06T19:50:17.982Z,35.50
2023-01-06T19:52:56.894Z,35.50
2023-01-06T19:55:31.728Z,41.70
2023-01-06T19:58:15.423Z,60.30
2023-01-06T20:00:50.967Z,51.90
2023-01-06T20:03:31.668Z,63.20
2023-01-06T20:06:05.693Z,108.40
2023-01-06T20:08:38.473Z,93.10
2023-01-06T20:11:11.490Z,62.60
2023-01-06T20:13:44.617Z,47.70
2023-01-06T20:16:20.550Z,38.80
2023-01-06T20:18:53.630Z,34.30
2023-01-06T20:21:27.264Z,33.60
2023-01-06T20:24:02.369Z,31.40
2023-01-06T20:26:38.057Z,32.90
2023-01-06T20:29:11.645Z,36.10
2023-01-06T20:31:45.591Z,44.50
2023-01-06T20:34:18.569Z,45.80
2023-01-06T20:36:53.869Z,56.90
2023-01-06T20:39:29.101Z,50.20
2023-01-06T20:42:04.465Z,44.90
2023-01-06T20:44:37.283Z,36.50
2023-01-06T20:47:10.362Z,60.50
2023-01-06T20:49:43.212Z,97.30
2023-01-06T20:52:16.087Z,85.80
2023-01-06T20:54:48.920Z,82.50
2023-01-06T20:57:21.967Z,64.00
2023-01-06T20:59:54.918Z,52.80
2023-01-06T21:02:27.808Z,96.10
2023-01-06T21:05:00.969Z,77.40
2023-01-06T21:07:38.490Z,44.10
2023-01-06T21:10:12.083Z,39.50
2023-01-06T21:12:45.361Z,39.50
2023-01-06T21:15:18.329Z,40.20
2023-01-06T21:17:51.267Z,45.50
2023-01-06T21:20:24.149Z,41.30
2023-01-06T21:22:57.077Z,42.70
2023-01-06T21:25:32.739Z,41.60
2023-01-06T21:28:06.702Z,43.10
2023-01-06T21:30:39.715Z,41.60
2023-01-06T21:33:13.360Z,38.90
2023-01-06T21:35:46.234Z,40.50
2023-01-06T21:38:19.376Z,41.50
2023-01-06T21:40:53.177Z,40.80
2023-01-06T21:43:25.905Z,40.90
2023-01-06T21:45:58.830Z,40.00
2023-01-06T21:48:31.829Z,40.60
2023-01-06T21:51:04.600Z,38.90
2023-01-06T21:53:38.866Z,40.70
2023-01-06T21:56:12.320Z,41.50
2023-01-06T21:58:45.307Z,37.20
2023-01-06T22:01:19.660Z,39.50
2023-01-06T22:03:52.535Z,39.10
2023-01-06T22:06:25.997Z,37.50
2023-01-06T22:09:01.006Z,37.50
2023-01-06T22:11:34.624Z,35.60
2023-01-06T22:14:09.171Z,34.80
2023-01-06T22:16:42.972Z,35.60
2023-01-06T22:19:17.826Z,34.50
2023-01-06T22:21:50.610Z,36.30
2023-01-06T22:24:25.699Z,34.00
2023-01-06T22:26:58.698Z,34.60
2023-01-06T22:29:31.637Z,32.80
2023-01-06T22:32:08.933Z,33.30
2023-01-06T22:34:42.933Z,31.70
2023-01-06T22:37:19.304Z,31.30
2023-01-06T22:39:54.840Z,28.60
2023-01-06T22:42:27.489Z,28.60
2023-01-06T22:45:00.384Z,26.30
2023-01-06T22:47:33.061Z,26.30
2023-01-06T22:50:08.064Z,25.70
2023-01-06T22:52:41.142Z,26.00
2023-01-06T22:55:14.204Z,23.80
2023-01-06T22:57:47.800Z,23.30
2023-01-06T23:00:22.091Z,25.10
2023-01-06T23:02:55.066Z,23.80
2023-01-06T23:05:28.953Z,23.60
2023-01-06T23:08:01.934Z,25.00
2023-01-06T23:10:35.672Z,22.50
2023-01-06T23:13:08.565Z,23.60
2023-01-06T23:15:41.323Z,24.00
2023-01-06T23:18:14.579Z,22.80
2023-01-06T23:20:56.955Z,22.60
2023-01-06T23:23:30.124Z,24.20
2023-01-06T23:26:07.412Z,24.70
2023-01-06T23:28:41.438Z,22.40
2023-01-06T23:31:18.427Z,26.10
2023-01-06T23:33:52.839Z,21.90
2023-01-06T23:36:27.311Z,23.70
2023-01-06T23:39:01.563Z,22.50
2023-01-06T23:41:36.668Z,24.90
2023-01-06T23:44:10.836Z,25.70
2023-01-06T23:46:44.053Z,23.70
2023-01-06T23:49:18.230Z,22.30
2023-01-06T23:51:50.869Z,23.10
2023-01-06T23:54:23.807Z,23.80
2023-01-06T23:56:56.675Z,20.20
2023-01-06T23:59:29.528Z,21.30
